sensor_id;sensor_type;location;lat;lon;timestamp;temperature;humidity
9640;DHT22;51745;50.872;4.732;2022-08-19T00:01:42;18.20;99.90
9640;DHT22;51745;50.872;4.732;2022-08-19T00:04:38;18.20;99.90
9640;DHT22;51745;50.872;4.732;2022-08-19T00:07:26;18.50;99.90
9640;DHT22;51745;50.872;4.732;2022-08-19T00:10:15;18.20;99.90
9640;DHT22;51745;50.872;4.732;2022-08-19T00:13:03;18.20;99.90
9640;DHT22;51745;50.872;4.732;2022-08-19T00:15:52;19.40;99.90
9640;DHT22;51745;50.872;4.732;2022-08-19T00:18:40;18.20;99.90
9640;DHT22;51745;50.872;4.732;2022-08-19T00:21:30;18.20;99.90
9640;DHT22;51745;50.872;4.732;2022-08-19T00:24:18;18.10;99.90
9640;DHT22;51745;50.872;4.732;2022-08-19T00:27:06;18.10;99.90
9640;DHT22;51745;50.872;4.732;2022-08-19T00:30:11;18.10;99.90
9640;DHT22;51745;50.872;4.732;2022-08-19T00:33:03;18.00;99.90
9640;DHT22;51745;50.872;4.732;2022-08-19T00:35:52;18.10;99.90
9640;DHT22;51745;50.872;4.732;2022-08-19T00:38:41;18.20;99.90
9640;DHT22;51745;50.872;4.732;2022-08-19T00:41:29;18.20;99.90
9640;DHT22;51745;50.872;4.732;2022-08-19T00:44:19;18.20;99.90
9640;DHT22;51745;50.872;4.732;2022-08-19T00:47:12;18.20;99.90
9640;DHT22;51745;50.872;4.732;2022-08-19T00:50:02;18.30;99.90
9640;DHT22;51745;50.872;4.732;2022-08-19T00:52:51;18.30;99.90
9640;DHT22;51745;50.872;4.732;2022-08-19T00:55:39;18.80;99.90
9640;DHT22;51745;50.872;4.732;2022-08-19T00:58:28;18.30;99.90
9640;DHT22;51745;50.872;4.732;2022-08-19T01:01:18;18.30;99.90
9640;DHT22;51745;50.872;4.732;2022-08-19T01:04:06;18.30;99.90
9640;DHT22;51745;50.872;4.732;2022-08-19T01:06:56;18.30;99.90
9640;DHT22;51745;50.872;4.732;2022-08-19T01:09:47;17.10;99.90
9640;DHT22;51745;50.872;4.732;2022-08-19T01:12:34;18.20;99.90
9640;DHT22;51745;50.872;4.732;2022-08-19T01:15:24;18.30;99.90
9640;DHT22;51745;50.872;4.732;2022-08-19T01:18:14;18.40;99.90
9640;DHT22;51745;50.872;4.732;2022-08-19T01:21:08;18.30;99.90
9640;DHT22;51745;50.872;4.732;2022-08-19T01:23:59;18.30;99.90
9640;DHT22;51745;50.872;4.732;2022-08-19T01:26:46;18.20;99.90
9640;DHT22;51745;50.872;4.732;2022-08-19T01:29:36;18.50;99.90
9640;DHT22;51745;50.872;4.732;2022-08-19T01:32:27;18.20;99.90
9640;DHT22;51745;50.872;4.732;2022-08-19T01:35:19;18.20;99.90
9640;DHT22;51745;50.872;4.732;2022-08-19T01:38:10;18.10;99.90
9640;DHT22;51745;50.872;4.732;2022-08-19T01:41:00;18.00;99.90
9640;DHT22;51745;50.872;4.732;2022-08-19T01:43:55;18.10;99.90
9640;DHT22;51745;50.872;4.732;2022-08-19T01:47:03;18.00;99.90
9640;DHT22;51745;50.872;4.732;2022-08-19T01:49:52;18.00;99.90
9640;DHT22;51745;50.872;4.732;2022-08-19T01:52:41;18.00;99.90
9640;DHT22;51745;50.872;4.732;2022-08-19T01:55:28;17.90;99.90
9640;DHT22;51745;50.872;4.732;2022-08-19T01:58:18;17.90;99.90
9640;DHT22;51745;50.872;4.732;2022-08-19T02:01:08;17.80;99.90
9640;DHT22;51745;50.872;4.732;2022-08-19T02:03:56;17.90;99.90
9640;DHT22;51745;50.872;4.732;2022-08-19T02:06:44;17.80;99.90
9640;DHT22;51745;50.872;4.732;2022-08-19T02:09:32;17.80;99.90
9640;DHT22;51745;50.872;4.732;2022-08-19T02:12:20;17.80;99.90
9640;DHT22;51745;50.872;4.732;2022-08-19T02:15:09;17.70;99.90
9640;DHT22;51745;50.872;4.732;2022-08-19T02:17:56;17.70;99.90
9640;DHT22;51745;50.872;4.732;2022-08-19T02:20:45;17.70;99.90
9640;DHT22;51745;50.872;4.732;2022-08-19T02:23:33;17.60;99.90
9640;DHT22;51745;50.872;4.732;2022-08-19T02:26:21;17.70;99.90
9640;DHT22;51745;50.872;4.732;2022-08-19T02:29:10;17.70;99.90
9640;DHT22;51745;50.872;4.732;2022-08-19T02:31:59;17.70;99.90
9640;DHT22;51745;50.872;4.732;2022-08-19T02:34:47;17.60;99.90
9640;DHT22;51745;50.872;4.732;2022-08-19T02:37:35;17.60;99.90
9640;DHT22;51745;50.872;4.732;2022-08-19T02:40:46;17.70;99.90
9640;DHT22;51745;50.872;4.732;2022-08-19T02:43:35;17.50;99.90
9640;DHT22;51745;50.872;4.732;2022-08-19T02:46:24;16.20;99.90
9640;DHT22;51745;50.872;4.732;2022-08-19T02:49:15;17.40;99.90
9640;DHT22;51745;50.872;4.732;2022-08-19T02:52:03;17.20;99.90
9640;DHT22;51745;50.872;4.732;2022-08-19T02:54:51;17.20;99.90
9640;DHT22;51745;50.872;4.732;2022-08-19T02:57:39;17.10;99.90
9640;DHT22;51745;50.872;4.732;2022-08-19T03:00:28;16.20;99.90
9640;DHT22;51745;50.872;4.732;2022-08-19T03:03:18;16.90;99.90
9640;DHT22;51745;50.872;4.732;2022-08-19T03:06:08;16.80;99.90
9640;DHT22;51745;50.872;4.732;2022-08-19T03:08:56;16.80;99.90
9640;DHT22;51745;50.872;4.732;2022-08-19T03:11:43;18.50;99.90
9640;DHT22;51745;50.872;4.732;2022-08-19T03:14:34;17.00;99.90
9640;DHT22;51745;50.872;4.732;2022-08-19T03:17:22;16.70;99.90
9640;DHT22;51745;50.872;4.732;2022-08-19T03:20:10;16.80;99.90
9640;DHT22;51745;50.872;4.732;2022-08-19T03:23:01;16.70;99.90
9640;DHT22;51745;50.872;4.732;2022-08-19T03:25:49;16.60;99.90
9640;DHT22;51745;50.872;4.732;2022-08-19T03:29:00;15.90;99.90
9640;DHT22;51745;50.872;4.732;2022-08-19T03:31:50;16.60;99.90
9640;DHT22;51745;50.872;4.732;2022-08-19T03:34:38;16.50;99.90
9640;DHT22;51745;50.872;4.732;2022-08-19T03:37:26;16.50;99.90
9640;DHT22;51745;50.872;4.732;2022-08-19T03:40:17;16.50;99.90
9640;DHT22;51745;50.872;4.732;2022-08-19T03:43:04;16.50;99.90
9640;DHT22;51745;50.872;4.732;2022-08-19T03:45:59;16.40;99.90
9640;DHT22;51745;50.872;4.732;2022-08-19T03:48:47;16.40;99.90
9640;DHT22;51745;50.872;4.732;2022-08-19T03:51:37;16.40;99.90
9640;DHT22;51745;50.872;4.732;2022-08-19T03:54:26;16.30;99.90
9640;DHT22;51745;50.872;4.732;2022-08-19T03:57:19;17.00;99.90
9640;DHT22;51745;50.872;4.732;2022-08-19T04:00:18;16.20;99.90
9640;DHT22;51745;50.872;4.732;2022-08-19T04:03:06;16.20;99.90
9640;DHT22;51745;50.872;4.732;2022-08-19T04:05:54;16.20;99.90
9640;DHT22;51745;50.872;4.732;2022-08-19T04:08:42;16.10;99.90
9640;DHT22;51745;50.872;4.732;2022-08-19T04:11:33;16.10;99.90
9640;DHT22;51745;50.872;4.732;2022-08-19T04:14:30;16.10;99.90
9640;DHT22;51745;50.872;4.732;2022-08-19T04:17:18;16.00;99.90
9640;DHT22;51745;50.872;4.732;2022-08-19T04:20:07;17.00;99.90
9640;DHT22;51745;50.872;4.732;2022-08-19T04:22:57;16.00;99.90
9640;DHT22;51745;50.872;4.732;2022-08-19T04:25:45;16.00;99.90
9640;DHT22;51745;50.872;4.732;2022-08-19T04:28:36;15.90;99.90
9640;DHT22;51745;50.872;4.732;2022-08-19T04:31:25;15.90;99.90
9640;DHT22;51745;50.872;4.732;2022-08-19T04:34:14;15.90;99.90
9640;DHT22;51745;50.872;4.732;2022-08-19T04:37:05;15.90;99.90
9640;DHT22;51745;50.872;4.732;2022-08-19T04:39:53;15.80;99.90
9640;DHT22;51745;50.872;4.732;2022-08-19T04:42:59;15.00;99.90
9640;DHT22;51745;50.872;4.732;2022-08-19T04:45:47;15.80;99.90
9640;DHT22;51745;50.872;4.732;2022-08-19T04:48:44;15.80;99.90
9640;DHT22;51745;50.872;4.732;2022-08-19T04:51:34;15.80;99.90
9640;DHT22;51745;50.872;4.732;2022-08-19T04:54:24;15.80;99.90
9640;DHT22;51745;50.872;4.732;2022-08-19T04:57:25;15.80;99.90
9640;DHT22;51745;50.872;4.732;2022-08-19T05:00:13;15.70;99.90
9640;DHT22;51745;50.872;4.732;2022-08-19T05:03:01;15.80;99.90
9640;DHT22;51745;50.872;4.732;2022-08-19T05:05:54;15.80;99.90
9640;DHT22;51745;50.872;4.732;2022-08-19T05:08:43;15.80;99.90
9640;DHT22;51745;50.872;4.732;2022-08-19T05:11:32;15.80;99.90
9640;DHT22;51745;50.872;4.732;2022-08-19T05:14:21;16.30;99.90
9640;DHT22;51745;50.872;4.732;2022-08-19T05:17:09;16.10;99.90
9640;DHT22;51745;50.872;4.732;2022-08-19T05:20:19;16.00;99.90
9640;DHT22;51745;50.872;4.732;2022-08-19T05:23:25;16.10;99.90
9640;DHT22;51745;50.872;4.732;2022-08-19T05:26:13;16.00;99.90
9640;DHT22;51745;50.872;4.732;2022-08-19T05:29:03;16.90;99.90
9640;DHT22;51745;50.872;4.732;2022-08-19T05:31:52;16.20;99.90
9640;DHT22;51745;50.872;4.732;2022-08-19T05:34:41;16.20;99.90
9640;DHT22;51745;50.872;4.732;2022-08-19T05:37:29;16.20;99.90
9640;DHT22;51745;50.872;4.732;2022-08-19T05:40:19;16.30;99.90
9640;DHT22;51745;50.872;4.732;2022-08-19T05:43:11;16.30;99.90
9640;DHT22;51745;50.872;4.732;2022-08-19T05:46:01;16.40;99.90
9640;DHT22;51745;50.872;4.732;2022-08-19T05:48:50;16.40;99.90
9640;DHT22;51745;50.872;4.732;2022-08-19T05:51:40;16.40;99.90
9640;DHT22;51745;50.872;4.732;2022-08-19T05:54:27;16.40;99.90
9640;DHT22;51745;50.872;4.732;2022-08-19T05:57:17;16.30;99.90
9640;DHT22;51745;50.872;4.732;2022-08-19T06:00:06;16.40;99.90
9640;DHT22;51745;50.872;4.732;2022-08-19T06:02:56;16.50;99.90
9640;DHT22;51745;50.872;4.732;2022-08-19T06:05:55;16.80;99.90
9640;DHT22;51745;50.872;4.732;2022-08-19T06:08:45;17.40;99.90
9640;DHT22;51745;50.872;4.732;2022-08-19T06:11:38;17.20;99.90
9640;DHT22;51745;50.872;4.732;2022-08-19T06:14:31;17.40;99.90
9640;DHT22;51745;50.872;4.732;2022-08-19T06:17:27;17.50;99.90
9640;DHT22;51745;50.872;4.732;2022-08-19T06:20:21;17.60;99.90
9640;DHT22;51745;50.872;4.732;2022-08-19T06:23:31;17.50;99.90
9640;DHT22;51745;50.872;4.732;2022-08-19T06:26:22;17.60;99.90
9640;DHT22;51745;50.872;4.732;2022-08-19T06:29:10;18.00;99.90
9640;DHT22;51745;50.872;4.732;2022-08-19T06:32:11;17.70;99.90
9640;DHT22;51745;50.872;4.732;2022-08-19T06:34:59;17.70;99.90
9640;DHT22;51745;50.872;4.732;2022-08-19T06:37:46;17.70;99.90
9640;DHT22;51745;50.872;4.732;2022-08-19T06:40:34;18.20;99.90
9640;DHT22;51745;50.872;4.732;2022-08-19T06:43:24;17.20;99.90
9640;DHT22;51745;50.872;4.732;2022-08-19T06:46:15;18.60;99.90
9640;DHT22;51745;50.872;4.732;2022-08-19T06:49:05;17.90;99.90
9640;DHT22;51745;50.872;4.732;2022-08-19T06:51:55;18.10;99.90
9640;DHT22;51745;50.872;4.732;2022-08-19T06:54:47;18.20;99.90
9640;DHT22;51745;50.872;4.732;2022-08-19T06:57:42;18.30;99.90
9640;DHT22;51745;50.872;4.732;2022-08-19T07:00:36;18.40;99.90
9640;DHT22;51745;50.872;4.732;2022-08-19T07:03:25;18.50;99.90
9640;DHT22;51745;50.872;4.732;2022-08-19T07:06:19;18.70;99.90
9640;DHT22;51745;50.872;4.732;2022-08-19T07:09:29;18.90;99.90
9640;DHT22;51745;50.872;4.732;2022-08-19T07:12:17;18.90;99.90
9640;DHT22;51745;50.872;4.732;2022-08-19T07:15:10;19.00;99.90
9640;DHT22;51745;50.872;4.732;2022-08-19T07:17:58;20.30;99.90
9640;DHT22;51745;50.872;4.732;2022-08-19T07:20:47;18.70;99.90
9640;DHT22;51745;50.872;4.732;2022-08-19T07:23:37;18.60;99.90
9640;DHT22;51745;50.872;4.732;2022-08-19T07:26:26;18.40;99.90
9640;DHT22;51745;50.872;4.732;2022-08-19T07:29:15;18.40;99.90
9640;DHT22;51745;50.872;4.732;2022-08-19T07:32:03;18.30;99.90
9640;DHT22;51745;50.872;4.732;2022-08-19T07:34:56;18.30;99.90
9640;DHT22;51745;50.872;4.732;2022-08-19T07:37:49;18.30;99.90
9640;DHT22;51745;50.872;4.732;2022-08-19T07:40:41;18.60;99.90
9640;DHT22;51745;50.872;4.732;2022-08-19T07:43:30;18.50;99.90
9640;DHT22;51745;50.872;4.732;2022-08-19T07:46:20;18.60;99.90
9640;DHT22;51745;50.872;4.732;2022-08-19T07:49:08;18.80;99.90
9640;DHT22;51745;50.872;4.732;2022-08-19T07:52:05;19.00;99.90
9640;DHT22;51745;50.872;4.732;2022-08-19T07:54:53;19.30;99.90
9640;DHT22;51745;50.872;4.732;2022-08-19T07:57:43;19.40;99.90
9640;DHT22;51745;50.872;4.732;2022-08-19T08:00:31;21.00;99.90
9640;DHT22;51745;50.872;4.732;2022-08-19T08:03:20;19.50;99.90
9640;DHT22;51745;50.872;4.732;2022-08-19T08:06:29;19.60;99.90
9640;DHT22;51745;50.872;4.732;2022-08-19T08:09:36;19.90;99.90
9640;DHT22;51745;50.872;4.732;2022-08-19T08:12:26;20.10;99.90
9640;DHT22;51745;50.872;4.732;2022-08-19T08:15:31;20.30;99.90
9640;DHT22;51745;50.872;4.732;2022-08-19T08:18:27;20.50;99.90
9640;DHT22;51745;50.872;4.732;2022-08-19T08:21:19;20.90;99.90
9640;DHT22;51745;50.872;4.732;2022-08-19T08:24:09;20.90;99.90
9640;DHT22;51745;50.872;4.732;2022-08-19T08:26:58;20.90;99.90
9640;DHT22;51745;50.872;4.732;2022-08-19T08:29:46;22.40;99.90
9640;DHT22;51745;50.872;4.732;2022-08-19T08:32:36;20.90;99.90
9640;DHT22;51745;50.872;4.732;2022-08-19T08:35:26;20.90;99.90
9640;DHT22;51745;50.872;4.732;2022-08-19T08:38:14;20.90;99.90
9640;DHT22;51745;50.872;4.732;2022-08-19T08:41:07;20.80;99.90
9640;DHT22;51745;50.872;4.732;2022-08-19T08:43:58;20.90;99.90
9640;DHT22;51745;50.872;4.732;2022-08-19T08:46:48;21.10;99.90
9640;DHT22;51745;50.872;4.732;2022-08-19T08:49:40;21.20;99.90
9640;DHT22;51745;50.872;4.732;2022-08-19T08:52:30;21.20;99.90
9640;DHT22;51745;50.872;4.732;2022-08-19T08:55:22;21.10;99.90
9640;DHT22;51745;50.872;4.732;2022-08-19T08:58:12;21.10;99.90
9640;DHT22;51745;50.872;4.732;2022-08-19T09:01:02;21.20;99.90
9640;DHT22;51745;50.872;4.732;2022-08-19T09:03:50;21.40;99.90
9640;DHT22;51745;50.872;4.732;2022-08-19T09:06:40;21.60;99.90
9640;DHT22;51745;50.872;4.732;2022-08-19T09:09:32;21.60;99.90
9640;DHT22;51745;50.872;4.732;2022-08-19T09:12:23;21.50;99.90
9640;DHT22;51745;50.872;4.732;2022-08-19T09:15:13;21.30;99.90
9640;DHT22;51745;50.872;4.732;2022-08-19T09:18:03;21.40;99.90
9640;DHT22;51745;50.872;4.732;2022-08-19T09:20:52;21.50;99.90
9640;DHT22;51745;50.872;4.732;2022-08-19T09:23:43;21.70;99.90
9640;DHT22;51745;50.872;4.732;2022-08-19T09:26:36;21.20;99.90
9640;DHT22;51745;50.872;4.732;2022-08-19T09:29:37;21.70;99.90
9640;DHT22;51745;50.872;4.732;2022-08-19T09:32:25;21.70;99.90
9640;DHT22;51745;50.872;4.732;2022-08-19T09:35:14;21.80;99.90
9640;DHT22;51745;50.872;4.732;2022-08-19T09:38:02;22.20;99.90
9640;DHT22;51745;50.872;4.732;2022-08-19T09:40:51;22.30;99.90
9640;DHT22;51745;50.872;4.732;2022-08-19T09:43:39;22.40;99.90
9640;DHT22;51745;50.872;4.732;2022-08-19T09:46:33;22.40;99.90
9640;DHT22;51745;50.872;4.732;2022-08-19T09:49:22;22.40;99.90
9640;DHT22;51745;50.872;4.732;2022-08-19T09:52:09;22.50;99.90
9640;DHT22;51745;50.872;4.732;2022-08-19T09:54:59;22.60;99.90
9640;DHT22;51745;50.872;4.732;2022-08-19T09:57:54;22.70;99.90
9640;DHT22;51745;50.872;4.732;2022-08-19T10:00:43;22.60;99.90
9640;DHT22;51745;50.872;4.732;2022-08-19T10:03:37;22.60;99.90
9640;DHT22;51745;50.872;4.732;2022-08-19T10:06:26;22.90;99.90
9640;DHT22;51745;50.872;4.732;2022-08-19T10:09:31;22.90;99.90
9640;DHT22;51745;50.872;4.732;2022-08-19T10:12:20;22.80;99.90
9640;DHT22;51745;50.872;4.732;2022-08-19T10:15:13;22.40;99.90
9640;DHT22;51745;50.872;4.732;2022-08-19T10:18:01;22.70;99.90
9640;DHT22;51745;50.872;4.732;2022-08-19T10:20:50;22.60;99.90
9640;DHT22;51745;50.872;4.732;2022-08-19T10:23:40;22.60;99.90
9640;DHT22;51745;50.872;4.732;2022-08-19T10:26:36;22.70;99.90
9640;DHT22;51745;50.872;4.732;2022-08-19T10:29:25;22.80;99.90
9640;DHT22;51745;50.872;4.732;2022-08-19T10:32:20;23.00;99.90
9640;DHT22;51745;50.872;4.732;2022-08-19T10:35:19;23.10;99.90
9640;DHT22;51745;50.872;4.732;2022-08-19T10:38:08;23.30;99.90
9640;DHT22;51745;50.872;4.732;2022-08-19T10:40:56;23.40;99.90
9640;DHT22;51745;50.872;4.732;2022-08-19T10:43:45;23.40;99.90
9640;DHT22;51745;50.872;4.732;2022-08-19T10:46:36;23.40;99.90
9640;DHT22;51745;50.872;4.732;2022-08-19T10:49:25;23.30;99.90
9640;DHT22;51745;50.872;4.732;2022-08-19T10:52:14;23.40;99.90
9640;DHT22;51745;50.872;4.732;2022-08-19T10:55:20;23.30;99.90
9640;DHT22;51745;50.872;4.732;2022-08-19T10:58:25;23.20;99.90
9640;DHT22;51745;50.872;4.732;2022-08-19T11:01:14;23.30;99.90
9640;DHT22;51745;50.872;4.732;2022-08-19T11:04:02;23.50;99.90
9640;DHT22;51745;50.872;4.732;2022-08-19T11:06:52;23.70;99.90
9640;DHT22;51745;50.872;4.732;2022-08-19T11:09:41;23.80;99.90
9640;DHT22;51745;50.872;4.732;2022-08-19T11:12:29;23.80;99.90
9640;DHT22;51745;50.872;4.732;2022-08-19T11:15:17;23.80;99.90
9640;DHT22;51745;50.872;4.732;2022-08-19T11:18:05;23.70;99.90
9640;DHT22;51745;50.872;4.732;2022-08-19T11:21:04;23.50;99.90
9640;DHT22;51745;50.872;4.732;2022-08-19T11:23:59;23.40;99.90
9640;DHT22;51745;50.872;4.732;2022-08-19T11:26:47;22.00;99.90
9640;DHT22;51745;50.872;4.732;2022-08-19T11:29:38;23.30;99.90
9640;DHT22;51745;50.872;4.732;2022-08-19T11:32:27;23.30;99.90
9640;DHT22;51745;50.872;4.732;2022-08-19T11:35:15;23.30;99.90
9640;DHT22;51745;50.872;4.732;2022-08-19T11:38:06;23.20;99.90
9640;DHT22;51745;50.872;4.732;2022-08-19T11:40:56;23.50;99.90
9640;DHT22;51745;50.872;4.732;2022-08-19T11:43:44;23.10;99.90
9640;DHT22;51745;50.872;4.732;2022-08-19T11:46:32;23.00;99.90
9640;DHT22;51745;50.872;4.732;2022-08-19T11:49:20;23.00;99.90
9640;DHT22;51745;50.872;4.732;2022-08-19T11:52:09;22.40;99.90
9640;DHT22;51745;50.872;4.732;2022-08-19T11:54:56;22.90;99.90
9640;DHT22;51745;50.872;4.732;2022-08-19T11:57:46;22.80;99.90
9640;DHT22;51745;50.872;4.732;2022-08-19T12:00:34;22.90;99.90
9640;DHT22;51745;50.872;4.732;2022-08-19T12:03:23;22.90;99.90
9640;DHT22;51745;50.872;4.732;2022-08-19T12:06:13;22.80;99.90
9640;DHT22;51745;50.872;4.732;2022-08-19T12:09:02;22.90;99.90
9640;DHT22;51745;50.872;4.732;2022-08-19T12:11:50;23.00;99.90
9640;DHT22;51745;50.872;4.732;2022-08-19T12:14:39;23.10;99.90
9640;DHT22;51745;50.872;4.732;2022-08-19T12:17:27;23.00;99.90
9640;DHT22;51745;50.872;4.732;2022-08-19T12:20:17;22.90;99.90
9640;DHT22;51745;50.872;4.732;2022-08-19T12:23:05;22.70;99.90
9640;DHT22;51745;50.872;4.732;2022-08-19T12:25:53;22.70;99.90
9640;DHT22;51745;50.872;4.732;2022-08-19T12:28:43;22.60;99.90
9640;DHT22;51745;50.872;4.732;2022-08-19T12:31:33;22.50;99.90
9640;DHT22;51745;50.872;4.732;2022-08-19T12:34:21;22.50;99.90
9640;DHT22;51745;50.872;4.732;2022-08-19T12:37:12;22.50;99.90
9640;DHT22;51745;50.872;4.732;2022-08-19T12:40:00;22.80;99.90
9640;DHT22;51745;50.872;4.732;2022-08-19T12:42:48;23.10;99.90
9640;DHT22;51745;50.872;4.732;2022-08-19T12:45:37;23.30;99.90
9640;DHT22;51745;50.872;4.732;2022-08-19T12:48:29;23.50;99.90
9640;DHT22;51745;50.872;4.732;2022-08-19T12:51:20;23.80;99.90
9640;DHT22;51745;50.872;4.732;2022-08-19T12:54:07;23.90;99.90
9640;DHT22;51745;50.872;4.732;2022-08-19T12:56:55;24.10;99.90
9640;DHT22;51745;50.872;4.732;2022-08-19T12:59:42;24.30;99.90
9640;DHT22;51745;50.872;4.732;2022-08-19T13:02:30;24.40;99.90
9640;DHT22;51745;50.872;4.732;2022-08-19T13:05:26;24.60;99.90
9640;DHT22;51745;50.872;4.732;2022-08-19T13:08:14;24.80;99.90
9640;DHT22;51745;50.872;4.732;2022-08-19T13:11:12;24.80;99.90
9640;DHT22;51745;50.872;4.732;2022-08-19T13:14:01;24.80;99.90
9640;DHT22;51745;50.872;4.732;2022-08-19T13:16:49;25.00;99.90
9640;DHT22;51745;50.872;4.732;2022-08-19T13:19:38;25.20;99.90
9640;DHT22;51745;50.872;4.732;2022-08-19T13:22:28;25.20;99.90
9640;DHT22;51745;50.872;4.732;2022-08-19T13:25:16;25.50;99.90
9640;DHT22;51745;50.872;4.732;2022-08-19T13:28:06;25.80;99.90
9640;DHT22;51745;50.872;4.732;2022-08-19T13:30:57;26.00;99.90
9640;DHT22;51745;50.872;4.732;2022-08-19T13:33:59;25.70;99.90
9640;DHT22;51745;50.872;4.732;2022-08-19T13:36:46;25.50;99.90
9640;DHT22;51745;50.872;4.732;2022-08-19T13:39:35;25.40;99.90
9640;DHT22;51745;50.872;4.732;2022-08-19T13:42:23;25.40;99.90
9640;DHT22;51745;50.872;4.732;2022-08-19T13:45:12;25.40;99.90
9640;DHT22;51745;50.872;4.732;2022-08-19T13:48:01;25.40;99.90
9640;DHT22;51745;50.872;4.732;2022-08-19T13:51:00;25.50;99.90
9640;DHT22;51745;50.872;4.732;2022-08-19T13:53:48;25.60;99.90
9640;DHT22;51745;50.872;4.732;2022-08-19T13:56:41;25.60;99.90
9640;DHT22;51745;50.872;4.732;2022-08-19T13:59:29;25.70;99.90
9640;DHT22;51745;50.872;4.732;2022-08-19T14:02:16;25.80;99.90
9640;DHT22;51745;50.872;4.732;2022-08-19T14:05:05;25.80;99.90
9640;DHT22;51745;50.872;4.732;2022-08-19T14:07:53;25.90;99.90
9640;DHT22;51745;50.872;4.732;2022-08-19T14:10:45;25.80;99.90
9640;DHT22;51745;50.872;4.732;2022-08-19T14:13:39;25.40;99.90
9640;DHT22;51745;50.872;4.732;2022-08-19T14:16:27;25.20;99.90
9640;DHT22;51745;50.872;4.732;2022-08-19T14:19:16;25.20;99.90
9640;DHT22;51745;50.872;4.732;2022-08-19T14:22:04;25.20;99.90
9640;DHT22;51745;50.872;4.732;2022-08-19T14:24:52;25.60;99.90
9640;DHT22;51745;50.872;4.732;2022-08-19T14:27:41;24.90;99.90
9640;DHT22;51745;50.872;4.732;2022-08-19T14:30:30;24.80;99.90
9640;DHT22;51745;50.872;4.732;2022-08-19T14:33:18;25.00;99.90
9640;DHT22;51745;50.872;4.732;2022-08-19T14:36:13;25.30;99.90
9640;DHT22;51745;50.872;4.732;2022-08-19T14:39:00;25.50;99.90
9640;DHT22;51745;50.872;4.732;2022-08-19T14:41:49;25.70;99.90
9640;DHT22;51745;50.872;4.732;2022-08-19T14:44:38;25.80;99.90
9640;DHT22;51745;50.872;4.732;2022-08-19T14:47:27;26.30;99.90
9640;DHT22;51745;50.872;4.732;2022-08-19T14:50:18;26.50;99.90
9640;DHT22;51745;50.872;4.732;2022-08-19T14:53:07;25.30;99.90
9640;DHT22;51745;50.872;4.732;2022-08-19T14:55:58;25.90;99.90
9640;DHT22;51745;50.872;4.732;2022-08-19T14:58:46;25.60;99.90
9640;DHT22;51745;50.872;4.732;2022-08-19T15:01:33;25.30;99.90
9640;DHT22;51745;50.872;4.732;2022-08-19T15:04:22;25.00;99.90
9640;DHT22;51745;50.872;4.732;2022-08-19T15:07:10;24.80;99.90
9640;DHT22;51745;50.872;4.732;2022-08-19T15:09:58;24.50;99.90
9640;DHT22;51745;50.872;4.732;2022-08-19T15:12:46;24.30;99.90
9640;DHT22;51745;50.872;4.732;2022-08-19T15:15:37;24.10;99.90
9640;DHT22;51745;50.872;4.732;2022-08-19T15:18:25;23.90;99.90
9640;DHT22;51745;50.872;4.732;2022-08-19T15:21:34;23.70;99.90
9640;DHT22;51745;50.872;4.732;2022-08-19T15:24:22;23.40;99.90
9640;DHT22;51745;50.872;4.732;2022-08-19T15:27:12;23.40;99.90
9640;DHT22;51745;50.872;4.732;2022-08-19T15:30:00;23.50;99.90
9640;DHT22;51745;50.872;4.732;2022-08-19T15:32:48;23.70;99.90
9640;DHT22;51745;50.872;4.732;2022-08-19T15:35:38;23.70;99.90
9640;DHT22;51745;50.872;4.732;2022-08-19T15:38:28;23.70;99.90
9640;DHT22;51745;50.872;4.732;2022-08-19T15:41:21;23.70;99.90
9640;DHT22;51745;50.872;4.732;2022-08-19T15:44:16;23.60;99.90
9640;DHT22;51745;50.872;4.732;2022-08-19T15:47:04;23.30;99.90
9640;DHT22;51745;50.872;4.732;2022-08-19T15:49:52;23.10;99.90
9640;DHT22;51745;50.872;4.732;2022-08-19T15:52:46;23.00;99.90
9640;DHT22;51745;50.872;4.732;2022-08-19T15:55:40;22.70;99.90
9640;DHT22;51745;50.872;4.732;2022-08-19T15:58:28;22.50;99.90
9640;DHT22;51745;50.872;4.732;2022-08-19T16:01:37;22.30;99.90
9640;DHT22;51745;50.872;4.732;2022-08-19T16:04:58;22.30;99.90
9640;DHT22;51745;50.872;4.732;2022-08-19T16:08:03;22.60;99.90
9640;DHT22;51745;50.872;4.732;2022-08-19T16:10:53;22.90;99.90
9640;DHT22;51745;50.872;4.732;2022-08-19T16:13:41;23.10;99.90
9640;DHT22;51745;50.872;4.732;2022-08-19T16:16:44;23.30;99.90
9640;DHT22;51745;50.872;4.732;2022-08-19T16:20:05;23.30;99.90
9640;DHT22;51745;50.872;4.732;2022-08-19T16:22:54;23.20;99.90
9640;DHT22;51745;50.872;4.732;2022-08-19T16:25:43;23.30;99.90
9640;DHT22;51745;50.872;4.732;2022-08-19T16:28:32;23.50;99.90
9640;DHT22;51745;50.872;4.732;2022-08-19T16:31:20;23.40;99.90
9640;DHT22;51745;50.872;4.732;2022-08-19T16:34:08;22.20;99.90
9640;DHT22;51745;50.872;4.732;2022-08-19T16:36:56;23.10;99.90
9640;DHT22;51745;50.872;4.732;2022-08-19T16:39:44;23.00;99.90
9640;DHT22;51745;50.872;4.732;2022-08-19T16:42:31;23.30;99.90
9640;DHT22;51745;50.872;4.732;2022-08-19T16:45:22;22.80;99.90
9640;DHT22;51745;50.872;4.732;2022-08-19T16:48:10;22.80;99.90
9640;DHT22;51745;50.872;4.732;2022-08-19T16:50:57;24.40;99.90
9640;DHT22;51745;50.872;4.732;2022-08-19T16:53:46;22.50;99.90
9640;DHT22;51745;50.872;4.732;2022-08-19T16:56:33;22.50;99.90
9640;DHT22;51745;50.872;4.732;2022-08-19T16:59:21;22.50;99.90
9640;DHT22;51745;50.872;4.732;2022-08-19T17:02:15;22.50;99.90
9640;DHT22;51745;50.872;4.732;2022-08-19T17:05:03;22.50;99.90
9640;DHT22;51745;50.872;4.732;2022-08-19T17:07:51;22.50;99.90
9640;DHT22;51745;50.872;4.732;2022-08-19T17:10:38;22.50;99.90
9640;DHT22;51745;50.872;4.732;2022-08-19T17:13:41;22.50;99.90
9640;DHT22;51745;50.872;4.732;2022-08-19T17:16:33;22.40;99.90
9640;DHT22;51745;50.872;4.732;2022-08-19T17:19:23;22.60;99.90
9640;DHT22;51745;50.872;4.732;2022-08-19T17:22:13;22.30;99.90
9640;DHT22;51745;50.872;4.732;2022-08-19T17:25:00;22.30;99.90
9640;DHT22;51745;50.872;4.732;2022-08-19T17:27:48;22.30;99.90
9640;DHT22;51745;50.872;4.732;2022-08-19T17:30:39;22.20;99.90
9640;DHT22;51745;50.872;4.732;2022-08-19T17:33:27;22.10;99.90
9640;DHT22;51745;50.872;4.732;2022-08-19T17:36:16;23.70;99.90
9640;DHT22;51745;50.872;4.732;2022-08-19T17:39:05;22.00;99.90
9640;DHT22;51745;50.872;4.732;2022-08-19T17:41:53;20.20;99.90
9640;DHT22;51745;50.872;4.732;2022-08-19T17:44:47;22.00;99.90
9640;DHT22;51745;50.872;4.732;2022-08-19T17:47:35;22.10;99.90
9640;DHT22;51745;50.872;4.732;2022-08-19T17:50:23;21.70;99.90
9640;DHT22;51745;50.872;4.732;2022-08-19T17:53:13;21.50;99.90
9640;DHT22;51745;50.872;4.732;2022-08-19T17:56:01;21.30;99.90
9640;DHT22;51745;50.872;4.732;2022-08-19T17:58:49;20.90;99.90
9640;DHT22;51745;50.872;4.732;2022-08-19T18:01:46;20.80;99.90
9640;DHT22;51745;50.872;4.732;2022-08-19T18:04:39;21.00;99.90
9640;DHT22;51745;50.872;4.732;2022-08-19T18:07:33;20.50;99.90
9640;DHT22;51745;50.872;4.732;2022-08-19T18:10:22;20.40;99.90
9640;DHT22;51745;50.872;4.732;2022-08-19T18:13:20;20.20;99.90
9640;DHT22;51745;50.872;4.732;2022-08-19T18:16:08;20.20;99.90